Time;durP1;ratioP1;P1;durP2;ratioP2;P2;SDS_P1;SDS_P2;PMS_P1;PMS_P2;Temp;Humidity;BMP_temperature;BMP_pressure;BME280_temperature;BME280_humidity;BME280_pressure;Samples;Min_cycle;Max_cycle;Signal;HPM_P1;HPM_P2
2023/12/24 00:01:06;;;;;;;16.43;12.20;;;;;;;;;;5054313;28;20445;-68
2023/12/24 00:03:34;;;;;;;19.33;14.07;;;;;;;;;;5052021;28;20483;-66
2023/12/24 00:06:01;;;;;;;21.73;13.70;;;;;;;;;;5053570;28;20515;-69
2023/12/24 00:08:28;;;;;;;19.43;13.60;;;;;;;;;;5053985;28;20448;-68
2023/12/24 00:10:55;;;;;;;17.30;12.53;;;;;;;;;;5053754;28;20470;-69
2023/12/24 00:13:21;;;;;;;19.80;14.00;;;;;;;;;;5055518;28;20449;-69
2023/12/24 00:15:47;;;;;;;19.17;14.13;;;;;;;;;;5047873;28;20465;-69
2023/12/24 00:18:14;;;;;;;16.77;12.73;;;;;;;;;;5054095;28;20498;-65
2023/12/24 00:20:42;;;;;;;19.17;13.53;;;;;;;;;;5055844;28;21192;-66
2023/12/24 00:23:09;;;;;;;15.53;12.50;;;;;;;;;;5052809;28;20476;-68
2023/12/24 00:25:35;;;;;;;22.77;13.10;;;;;;;;;;5050142;28;20493;-70
2023/12/24 00:28:02;;;;;;;18.47;12.30;;;;;;;;;;5054610;28;20490;-70
2023/12/24 00:30:28;;;;;;;19.90;11.60;;;;;;;;;;5053996;28;20846;-71
2023/12/24 00:32:54;;;;;;;20.50;12.90;;;;;;;;;;5053318;28;21132;-67
2023/12/24 00:35:21;;;;;;;17.23;11.33;;;;;;;;;;5044146;28;20473;-70
2023/12/24 00:37:49;;;;;;;15.33;10.10;;;;;;;;;;5048821;28;20509;-70
2023/12/24 00:40:15;;;;;;;20.43;11.60;;;;;;;;;;5049870;28;20477;-70
2023/12/24 00:42:42;;;;;;;18.60;11.90;;;;;;;;;;5047363;28;20488;-74
2023/12/24 00:45:09;;;;;;;15.53;11.70;;;;;;;;;;5049229;28;20465;-70
2023/12/24 00:47:35;;;;;;;13.87;10.97;;;;;;;;;;5048756;28;20525;-71
2023/12/24 00:50:01;;;;;;;10.50;9.30;;;;;;;;;;5055709;28;20488;-67
2023/12/24 00:52:28;;;;;;;14.10;9.93;;;;;;;;;;5051843;28;20461;-68
2023/12/24 00:54:55;;;;;;;13.43;9.37;;;;;;;;;;5050129;28;20481;-67
2023/12/24 00:57:22;;;;;;;14.80;9.73;;;;;;;;;;5053144;28;20984;-67
2023/12/24 00:59:48;;;;;;;12.37;8.83;;;;;;;;;;5050705;28;20536;-67
2023/12/24 01:02:15;;;;;;;10.57;8.10;;;;;;;;;;5049095;28;20935;-72
2023/12/24 01:04:41;;;;;;;12.37;8.80;;;;;;;;;;5049992;28;20561;-77
2023/12/24 01:07:07;;;;;;;11.20;9.30;;;;;;;;;;5047113;28;20475;-79
2023/12/24 01:09:36;;;;;;;12.53;8.70;;;;;;;;;;5053206;28;20480;-77
2023/12/24 01:12:04;;;;;;;11.87;8.40;;;;;;;;;;5050513;28;20481;-76
2023/12/24 01:14:30;;;;;;;14.23;9.10;;;;;;;;;;5045125;28;20518;-75
2023/12/24 01:16:57;;;;;;;13.27;8.40;;;;;;;;;;5043248;28;20465;-79
2023/12/24 01:19:23;;;;;;;13.03;9.20;;;;;;;;;;5047998;28;20456;-76
2023/12/24 01:21:49;;;;;;;12.80;8.67;;;;;;;;;;5046390;28;20551;-80
2023/12/24 01:24:16;;;;;;;17.37;8.27;;;;;;;;;;5045921;28;20484;-76
2023/12/24 01:26:42;;;;;;;16.80;9.10;;;;;;;;;;5047030;28;20802;-80
2023/12/24 01:29:10;;;;;;;10.53;8.30;;;;;;;;;;5049009;28;20534;-77
2023/12/24 01:31:38;;;;;;;10.80;8.70;;;;;;;;;;5044145;28;20525;-76
2023/12/24 01:34:04;;;;;;;12.20;8.33;;;;;;;;;;5047771;28;20538;-77
2023/12/24 01:36:31;;;;;;;11.97;8.37;;;;;;;;;;5054676;28;20540;-75
2023/12/24 01:38:57;;;;;;;13.90;8.67;;;;;;;;;;5054569;28;20532;-76
2023/12/24 01:41:23;;;;;;;12.70;9.20;;;;;;;;;;5054119;28;21081;-79
2023/12/24 01:43:50;;;;;;;11.90;8.80;;;;;;;;;;5051677;28;21004;-79
2023/12/24 01:46:20;;;;;;;17.30;9.60;;;;;;;;;;5050945;28;20473;-78
2023/12/24 01:48:48;;;;;;;13.47;9.20;;;;;;;;;;5050744;28;20521;-76
2023/12/24 01:51:15;;;;;;;14.43;10.17;;;;;;;;;;5046822;28;20798;-79
2023/12/24 01:53:42;;;;;;;10.80;8.07;;;;;;;;;;5049862;28;20480;-77
2023/12/24 01:56:08;;;;;;;15.13;9.43;;;;;;;;;;5050708;28;20486;-77
2023/12/24 01:58:35;;;;;;;13.27;10.20;;;;;;;;;;5050514;28;20478;-76
2023/12/24 02:01:01;;;;;;;10.80;9.10;;;;;;;;;;5050197;28;20529;-75
2023/12/24 02:03:29;;;;;;;14.60;10.77;;;;;;;;;;5048893;28;20515;-78
2023/12/24 02:05:57;;;;;;;14.70;9.93;;;;;;;;;;5052842;28;20494;-76
2023/12/24 02:08:23;;;;;;;14.90;11.90;;;;;;;;;;5048498;28;20555;-80
2023/12/24 02:10:49;;;;;;;12.60;9.03;;;;;;;;;;5045106;28;20468;-79
2023/12/24 02:13:16;;;;;;;15.90;10.90;;;;;;;;;;5048855;28;20517;-79
2023/12/24 02:15:45;;;;;;;17.20;11.73;;;;;;;;;;5051724;28;20464;-81
2023/12/24 02:18:11;;;;;;;19.50;10.87;;;;;;;;;;5052603;28;20535;-76
2023/12/24 02:20:39;;;;;;;22.47;12.47;;;;;;;;;;5055468;28;20456;-76
2023/12/24 02:23:07;;;;;;;18.60;12.07;;;;;;;;;;5056901;28;20485;-76
2023/12/24 02:25:33;;;;;;;23.73;12.63;;;;;;;;;;5049798;28;20532;-80
2023/12/24 02:28:03;;;;;;;21.47;12.20;;;;;;;;;;5055761;28;20813;-78
2023/12/24 02:30:33;;;;;;;19.33;13.57;;;;;;;;;;5058048;28;20532;-79
2023/12/24 02:33:00;;;;;;;16.80;12.00;;;;;;;;;;5057287;28;20460;-76
2023/12/24 02:35:30;;;;;;;19.43;13.57;;;;;;;;;;5047551;28;21010;-78
2023/12/24 02:37:56;;;;;;;21.43;13.07;;;;;;;;;;5051822;28;20457;-75
2023/12/24 02:40:24;;;;;;;16.43;12.30;;;;;;;;;;5058876;28;20468;-79
2023/12/24 02:42:50;;;;;;;18.90;12.60;;;;;;;;;;5047859;28;20512;-77
2023/12/24 02:45:17;;;;;;;20.73;13.83;;;;;;;;;;5055366;28;20532;-75
2023/12/24 02:47:43;;;;;;;15.87;12.40;;;;;;;;;;5052865;28;20495;-79
2023/12/24 02:50:10;;;;;;;20.20;13.00;;;;;;;;;;5058457;28;20461;-79
2023/12/24 02:52:36;;;;;;;16.13;13.40;;;;;;;;;;5058387;28;20473;-75
2023/12/24 02:55:03;;;;;;;21.27;13.40;;;;;;;;;;5050338;28;20473;-80
2023/12/24 02:57:30;;;;;;;16.10;12.70;;;;;;;;;;5048103;28;20985;-74
2023/12/24 02:59:57;;;;;;;23.77;14.17;;;;;;;;;;5053745;28;20480;-79
2023/12/24 03:02:23;;;;;;;18.50;13.10;;;;;;;;;;5055234;28;20509;-81
2023/12/24 03:04:50;;;;;;;20.27;13.70;;;;;;;;;;5060822;28;20503;-80
2023/12/24 03:07:16;;;;;;;18.60;12.73;;;;;;;;;;5071827;28;20481;-80
2023/12/24 03:09:42;;;;;;;25.30;12.50;;;;;;;;;;5074232;28;20783;-80
2023/12/24 03:12:09;;;;;;;25.10;13.23;;;;;;;;;;5071270;28;20460;-76
2023/12/24 03:14:36;;;;;;;17.47;13.03;;;;;;;;;;5074940;28;20522;-77
2023/12/24 03:17:03;;;;;;;17.27;12.00;;;;;;;;;;5071912;28;20467;-80
2023/12/24 03:19:32;;;;;;;20.90;12.03;;;;;;;;;;5077992;28;20480;-74
2023/12/24 03:21:59;;;;;;;16.63;11.10;;;;;;;;;;5078155;28;20517;-78
2023/12/24 03:24:25;;;;;;;18.40;11.00;;;;;;;;;;5074299;28;20515;-80
2023/12/24 03:26:52;;;;;;;14.87;10.37;;;;;;;;;;5076061;28;20452;-76
2023/12/24 03:29:18;;;;;;;14.07;10.73;;;;;;;;;;5073415;28;20542;-77
2023/12/24 03:31:46;;;;;;;16.93;9.80;;;;;;;;;;5070787;28;20495;-79
2023/12/24 03:34:12;;;;;;;17.63;11.10;;;;;;;;;;5077851;28;20574;-76
2023/12/24 03:36:38;;;;;;;17.10;9.60;;;;;;;;;;5072663;28;20471;-77
2023/12/24 03:39:04;;;;;;;20.90;11.50;;;;;;;;;;5076231;28;20452;-75
2023/12/24 03:41:31;;;;;;;11.13;8.00;;;;;;;;;;5075249;28;20446;-74
2023/12/24 03:43:57;;;;;;;14.23;9.60;;;;;;;;;;5075332;28;20512;-79
2023/12/24 03:46:24;;;;;;;13.30;9.07;;;;;;;;;;5068918;28;20459;-76
2023/12/24 03:48:51;;;;;;;11.90;9.27;;;;;;;;;;5075170;28;20444;-76
2023/12/24 03:51:18;;;;;;;12.37;8.70;;;;;;;;;;5075186;28;20531;-79
2023/12/24 03:53:44;;;;;;;12.57;8.57;;;;;;;;;;5070621;28;20489;-78
2023/12/24 03:56:11;;;;;;;14.90;8.60;;;;;;;;;;5075379;28;20535;-79
2023/12/24 03:58:37;;;;;;;10.10;7.47;;;;;;;;;;5066350;28;20552;-80
2023/12/24 04:01:07;;;;;;;9.70;7.97;;;;;;;;;;5072750;28;20872;-80
2023/12/24 04:03:33;;;;;;;11.60;7.53;;;;;;;;;;5077243;28;20516;-76
2023/12/24 04:06:01;;;;;;;8.93;7.00;;;;;;;;;;5062973;28;20516;-78
2023/12/24 04:08:27;;;;;;;10.40;7.50;;;;;;;;;;5050023;28;20464;-74
2023/12/24 04:10:54;;;;;;;10.73;7.03;;;;;;;;;;5054540;28;20449;-78
2023/12/24 04:13:20;;;;;;;12.20;7.23;;;;;;;;;;5056461;28;20460;-77
2023/12/24 04:15:46;;;;;;;10.43;6.80;;;;;;;;;;5051505;28;20488;-78
2023/12/24 04:18:13;;;;;;;10.77;8.83;;;;;;;;;;5052613;28;20503;-79
2023/12/24 04:20:39;;;;;;;12.70;8.57;;;;;;;;;;5053151;28;20548;-78
2023/12/24 04:23:07;;;;;;;11.20;9.40;;;;;;;;;;5053025;28;21052;-77
2023/12/24 04:25:33;;;;;;;11.77;8.10;;;;;;;;;;5054366;28;20491;-76
2023/12/24 04:28:00;;;;;;;10.93;8.73;;;;;;;;;;5054331;28;21087;-78
2023/12/24 04:30:26;;;;;;;12.23;9.50;;;;;;;;;;5051994;28;20500;-80
2023/12/24 04:32:52;;;;;;;9.47;8.40;;;;;;;;;;5044786;28;20564;-80
2023/12/24 04:35:19;;;;;;;12.73;8.83;;;;;;;;;;5046272;28;20517;-80
2023/12/24 04:37:46;;;;;;;9.63;8.30;;;;;;;;;;5051416;28;20465;-81
2023/12/24 04:40:14;;;;;;;13.77;8.10;;;;;;;;;;5053350;28;20544;-80
2023/12/24 04:42:40;;;;;;;8.40;7.60;;;;;;;;;;5051215;28;20463;-77
2023/12/24 04:45:07;;;;;;;9.50;8.20;;;;;;;;;;5053117;28;21023;-80
2023/12/24 04:47:33;;;;;;;14.53;9.23;;;;;;;;;;5047029;28;21040;-75
2023/12/24 04:50:00;;;;;;;12.90;8.50;;;;;;;;;;5056823;28;20452;-75
2023/12/24 04:52:26;;;;;;;8.53;7.70;;;;;;;;;;5047624;28;20456;-75
2023/12/24 04:54:53;;;;;;;8.43;7.60;;;;;;;;;;5049771;28;20476;-76
2023/12/24 04:57:20;;;;;;;8.67;7.80;;;;;;;;;;5045206;28;20547;-77
2023/12/24 04:59:47;;;;;;;11.53;7.93;;;;;;;;;;5049207;28;20460;-76
2023/12/24 05:02:13;;;;;;;12.13;7.47;;;;;;;;;;5048499;28;20464;-74
2023/12/24 05:04:40;;;;;;;9.47;6.80;;;;;;;;;;5050872;28;21037;-79
2023/12/24 05:07:06;;;;;;;9.77;7.00;;;;;;;;;;5053800;28;20499;-80
2023/12/24 05:09:32;;;;;;;9.10;7.77;;;;;;;;;;5055305;28;20867;-77
2023/12/24 05:11:59;;;;;;;12.40;7.33;;;;;;;;;;5052053;28;20512;-79
2023/12/24 05:14:29;;;;;;;10.43;7.53;;;;;;;;;;5050757;28;20531;-79
2023/12/24 05:16:55;;;;;;;9.60;7.10;;;;;;;;;;5049858;28;20762;-77
2023/12/24 05:19:22;;;;;;;7.27;6.57;;;;;;;;;;5048531;28;20484;-79
2023/12/24 05:21:48;;;;;;;7.83;6.97;;;;;;;;;;5048240;28;20484;-80
2023/12/24 05:24:14;;;;;;;7.47;6.60;;;;;;;;;;5048037;28;20552;-79
2023/12/24 05:26:41;;;;;;;12.37;7.30;;;;;;;;;;5049776;28;20464;-77
2023/12/24 05:29:07;;;;;;;10.27;7.43;;;;;;;;;;5050016;28;20481;-78
2023/12/24 05:31:38;;;;;;;7.40;6.00;;;;;;;;;;5045663;28;20517;-78
2023/12/24 05:34:04;;;;;;;10.07;7.47;;;;;;;;;;5051680;28;20942;-79
2023/12/24 05:36:32;;;;;;;8.27;7.03;;;;;;;;;;5055850;28;20520;-76
2023/12/24 05:38:59;;;;;;;9.07;5.90;;;;;;;;;;5051483;28;20464;-80
2023/12/24 05:41:25;;;;;;;6.03;5.20;;;;;;;;;;5051588;28;20448;-80
2023/12/24 05:43:51;;;;;;;6.40;5.60;;;;;;;;;;5052834;28;20515;-77
2023/12/24 05:46:18;;;;;;;7.40;5.97;;;;;;;;;;5047157;28;20524;-80
2023/12/24 05:48:45;;;;;;;7.10;5.80;;;;;;;;;;5051110;28;21149;-76
2023/12/24 05:51:12;;;;;;;6.60;5.90;;;;;;;;;;5052813;28;20524;-77
2023/12/24 05:53:38;;;;;;;6.80;5.73;;;;;;;;;;5055597;28;20510;-78
2023/12/24 05:56:05;;;;;;;6.93;6.20;;;;;;;;;;5050798;28;20513;-79
2023/12/24 05:58:31;;;;;;;6.33;5.30;;;;;;;;;;5059178;28;20452;-78
2023/12/24 06:00:57;;;;;;;6.97;6.27;;;;;;;;;;5056460;28;20496;-79
2023/12/24 06:03:24;;;;;;;6.83;6.13;;;;;;;;;;5049582;28;20580;-78
2023/12/24 06:05:51;;;;;;;10.07;6.43;;;;;;;;;;5054750;28;20571;-79
2023/12/24 06:08:18;;;;;;;6.63;5.93;;;;;;;;;;5049003;28;20520;-79
2023/12/24 06:10:44;;;;;;;8.43;4.97;;;;;;;;;;5059306;28;20572;-78
2023/12/24 06:13:11;;;;;;;5.30;4.60;;;;;;;;;;5058702;28;20660;-78
2023/12/24 06:15:37;;;;;;;7.00;5.10;;;;;;;;;;5054564;28;20579;-75
2023/12/24 06:18:04;;;;;;;5.10;4.37;;;;;;;;;;5055642;28;20484;-75
2023/12/24 06:20:32;;;;;;;4.20;3.80;;;;;;;;;;5055503;28;20541;-78
2023/12/24 06:23:00;;;;;;;5.40;4.13;;;;;;;;;;5054415;28;20539;-73
2023/12/24 06:25:26;;;;;;;4.10;3.67;;;;;;;;;;5057645;28;20536;-78
2023/12/24 06:27:52;;;;;;;4.07;3.50;;;;;;;;;;5052057;28;20466;-79
2023/12/24 06:30:19;;;;;;;5.20;4.10;;;;;;;;;;5047219;28;20556;-75
2023/12/24 06:32:46;;;;;;;3.83;3.50;;;;;;;;;;5047373;28;20482;-72
2023/12/24 06:35:13;;;;;;;4.30;3.90;;;;;;;;;;5052296;28;20532;-79
2023/12/24 06:37:40;;;;;;;5.40;4.57;;;;;;;;;;5054991;28;20544;-77
2023/12/24 06:40:08;;;;;;;4.90;3.97;;;;;;;;;;5053523;28;20540;-74
2023/12/24 06:42:34;;;;;;;4.73;3.93;;;;;;;;;;5051506;28;20469;-76
2023/12/24 06:45:01;;;;;;;4.40;4.00;;;;;;;;;;5055982;28;20516;-76
2023/12/24 06:47:27;;;;;;;3.70;3.40;;;;;;;;;;5049250;28;21092;-77
2023/12/24 06:49:53;;;;;;;3.87;3.53;;;;;;;;;;5055931;28;20548;-75
2023/12/24 06:52:20;;;;;;;4.67;4.13;;;;;;;;;;5055946;28;20457;-75
2023/12/24 06:54:46;;;;;;;4.00;3.60;;;;;;;;;;5053484;28;20453;-77
2023/12/24 06:57:14;;;;;;;3.80;3.40;;;;;;;;;;5056310;28;20493;-79
2023/12/24 06:59:41;;;;;;;3.30;2.90;;;;;;;;;;5056829;28;20491;-78
2023/12/24 07:02:07;;;;;;;3.60;3.30;;;;;;;;;;5052097;28;20976;-77
2023/12/24 07:04:33;;;;;;;3.00;2.70;;;;;;;;;;5055846;28;20492;-78
2023/12/24 07:07:00;;;;;;;3.30;3.10;;;;;;;;;;5052779;28;20512;-72
2023/12/24 07:09:26;;;;;;;4.03;3.73;;;;;;;;;;5051306;28;20548;-78
2023/12/24 07:11:52;;;;;;;3.63;3.23;;;;;;;;;;5058048;28;20524;-77
2023/12/24 07:14:21;;;;;;;2.90;2.70;;;;;;;;;;5047926;28;20472;-78
2023/12/24 07:16:48;;;;;;;2.93;2.73;;;;;;;;;;5051140;28;21010;-75
2023/12/24 07:19:14;;;;;;;3.63;3.33;;;;;;;;;;5053200;28;20520;-73
2023/12/24 07:21:41;;;;;;;3.33;3.10;;;;;;;;;;5056171;28;20449;-74
2023/12/24 07:24:07;;;;;;;3.17;2.87;;;;;;;;;;5057105;28;21280;-75
2023/12/24 07:26:34;;;;;;;3.30;3.00;;;;;;;;;;5054801;28;20445;-76
2023/12/24 07:29:00;;;;;;;2.80;2.60;;;;;;;;;;5057316;28;20496;-77
2023/12/24 07:31:28;;;;;;;3.10;2.90;;;;;;;;;;5055515;28;20516;-76
2023/12/24 07:33:54;;;;;;;2.70;2.50;;;;;;;;;;5053333;28;20488;-78
2023/12/24 07:36:21;;;;;;;2.23;2.03;;;;;;;;;;5051345;28;20549;-74
2023/12/24 07:38:47;;;;;;;2.50;2.30;;;;;;;;;;5048548;28;20485;-78
2023/12/24 07:41:14;;;;;;;2.60;2.40;;;;;;;;;;5057742;28;20480;-79
2023/12/24 07:43:40;;;;;;;2.27;2.17;;;;;;;;;;5053173;28;20484;-78
2023/12/24 07:46:07;;;;;;;2.93;2.73;;;;;;;;;;5057315;28;20567;-75
2023/12/24 07:48:34;;;;;;;2.50;2.30;;;;;;;;;;5055667;28;20461;-78
2023/12/24 07:51:01;;;;;;;2.70;2.50;;;;;;;;;;5057298;28;20469;-76
2023/12/24 07:53:27;;;;;;;2.70;2.50;;;;;;;;;;5056532;28;20513;-76
2023/12/24 07:55:53;;;;;;;3.57;3.27;;;;;;;;;;5054495;28;20536;-78
2023/12/24 07:58:20;;;;;;;2.60;2.40;;;;;;;;;;5054000;28;20872;-78
2023/12/24 08:00:46;;;;;;;3.20;3.00;;;;;;;;;;5053496;28;20449;-78
2023/12/24 08:03:13;;;;;;;2.70;2.50;;;;;;;;;;5055858;28;21000;-75
2023/12/24 08:05:40;;;;;;;2.57;2.43;;;;;;;;;;5047535;28;20504;-76
2023/12/24 08:08:07;;;;;;;2.80;2.60;;;;;;;;;;5055281;28;20473;-75
2023/12/24 08:10:33;;;;;;;3.53;3.23;;;;;;;;;;5056186;28;20457;-77
2023/12/24 08:13:00;;;;;;;3.27;2.97;;;;;;;;;;5049048;28;20481;-79
2023/12/24 08:15:26;;;;;;;3.70;3.40;;;;;;;;;;5054418;28;20536;-79
2023/12/24 08:17:53;;;;;;;3.30;3.10;;;;;;;;;;5046706;28;20476;-75
2023/12/24 08:20:21;;;;;;;3.27;3.07;;;;;;;;;;5056924;28;20485;-76
2023/12/24 08:22:49;;;;;;;3.77;3.47;;;;;;;;;;5056899;28;21108;-79
2023/12/24 08:25:15;;;;;;;3.33;3.10;;;;;;;;;;5054270;28;20500;-76
2023/12/24 08:27:41;;;;;;;3.10;2.90;;;;;;;;;;5053912;28;21104;-77
2023/12/24 08:30:08;;;;;;;3.03;2.83;;;;;;;;;;5046146;28;20530;-77
2023/12/24 08:32:35;;;;;;;3.60;3.30;;;;;;;;;;5054966;28;20561;-76
2023/12/24 08:35:01;;;;;;;3.80;3.50;;;;;;;;;;5057117;28;20512;-75
2023/12/24 08:37:27;;;;;;;4.00;3.60;;;;;;;;;;5056380;28;20488;-76
2023/12/24 08:39:55;;;;;;;3.70;3.40;;;;;;;;;;5056100;28;20467;-76
2023/12/24 08:42:21;;;;;;;4.57;4.17;;;;;;;;;;5056543;28;20581;-76
2023/12/24 08:44:48;;;;;;;4.47;4.07;;;;;;;;;;5053622;28;20480;-74
2023/12/24 08:47:14;;;;;;;3.80;3.50;;;;;;;;;;5045953;28;20495;-77
2023/12/24 08:49:40;;;;;;;4.93;4.53;;;;;;;;;;5047731;28;20492;-73
2023/12/24 08:52:07;;;;;;;4.23;3.93;;;;;;;;;;5047937;28;20481;-76
2023/12/24 08:54:33;;;;;;;5.73;5.23;;;;;;;;;;5048369;28;20520;-74
2023/12/24 08:57:01;;;;;;;4.17;3.77;;;;;;;;;;5044052;28;20521;-77
2023/12/24 08:59:28;;;;;;;5.20;4.80;;;;;;;;;;5051092;28;21190;-75
2023/12/24 09:01:54;;;;;;;4.47;4.17;;;;;;;;;;5046789;28;20528;-79
2023/12/24 09:04:20;;;;;;;4.60;4.10;;;;;;;;;;5046171;28;20556;-76
2023/12/24 09:06:47;;;;;;;3.57;3.27;;;;;;;;;;5053886;28;20525;-74
2023/12/24 09:09:13;;;;;;;4.13;3.57;;;;;;;;;;5052310;28;20484;-78
2023/12/24 09:11:39;;;;;;;3.87;3.40;;;;;;;;;;5050574;28;20949;-81
2023/12/24 09:14:07;;;;;;;4.47;4.07;;;;;;;;;;5041596;28;20468;-78
2023/12/24 09:16:34;;;;;;;4.60;4.20;;;;;;;;;;5048463;28;20445;-77
2023/12/24 09:19:00;;;;;;;4.33;3.93;;;;;;;;;;5052002;28;20962;-77
2023/12/24 09:21:26;;;;;;;4.57;4.20;;;;;;;;;;5049842;28;20524;-80
2023/12/24 09:23:54;;;;;;;4.30;4.00;;;;;;;;;;5047428;28;20544;-79
2023/12/24 09:26:21;;;;;;;4.30;4.00;;;;;;;;;;5049354;28;20494;-79
2023/12/24 09:28:48;;;;;;;4.27;3.87;;;;;;;;;;5051469;28;20492;-78
2023/12/24 09:31:15;;;;;;;3.97;3.67;;;;;;;;;;5053593;28;20460;-75
2023/12/24 09:33:42;;;;;;;4.93;4.40;;;;;;;;;;5050172;28;20540;-77
2023/12/24 09:36:08;;;;;;;3.93;3.63;;;;;;;;;;5056940;28;20537;-80
2023/12/24 09:38:35;;;;;;;4.20;3.90;;;;;;;;;;5059297;28;20821;-81
2023/12/24 09:41:01;;;;;;;3.90;3.60;;;;;;;;;;5051770;28;20464;-73
2023/12/24 09:43:30;;;;;;;4.83;4.47;;;;;;;;;;5051022;28;21039;-72
2023/12/24 09:45:56;;;;;;;4.07;3.77;;;;;;;;;;5054746;28;20472;-73
2023/12/24 09:48:24;;;;;;;4.57;4.17;;;;;;;;;;5057078;28;20535;-71
2023/12/24 09:50:51;;;;;;;4.63;4.33;;;;;;;;;;5048570;28;20567;-79
2023/12/24 09:53:17;;;;;;;7.50;4.87;;;;;;;;;;5051558;28;20952;-72
2023/12/24 09:55:43;;;;;;;5.70;5.20;;;;;;;;;;5057327;28;20518;-72
2023/12/24 09:58:10;;;;;;;5.23;4.83;;;;;;;;;;5052311;28;20476;-68
2023/12/24 10:00:36;;;;;;;5.17;4.77;;;;;;;;;;5050342;28;20537;-68
2023/12/24 10:03:02;;;;;;;5.10;4.60;;;;;;;;;;5051980;28;20551;-68
2023/12/24 10:05:30;;;;;;;4.73;4.33;;;;;;;;;;5054780;28;20528;-67
2023/12/24 10:07:56;;;;;;;5.97;5.47;;;;;;;;;;5053780;28;20480;-68
2023/12/24 10:10:29;;;;;;;6.40;5.83;;;;;;;;;;5059499;28;20506;-68
2023/12/24 10:13:03;;;;;;;4.83;4.43;;;;;;;;;;5049626;28;20559;-69
2023/12/24 10:15:32;;;;;;;5.83;5.33;;;;;;;;;;5054937;28;20479;-70
2023/12/24 10:18:15;;;;;;;4.87;4.47;;;;;;;;;;5058049;28;20856;-70
2023/12/24 10:20:43;;;;;;;5.10;4.70;;;;;;;;;;5055633;28;20480;-71
2023/12/24 10:23:09;;;;;;;4.70;4.30;;;;;;;;;;5058237;28;20476;-71
2023/12/24 10:25:35;;;;;;;4.90;4.50;;;;;;;;;;5052030;28;20480;-70
2023/12/24 10:28:04;;;;;;;5.67;5.13;;;;;;;;;;5058206;28;20501;-69
2023/12/24 10:30:31;;;;;;;4.53;4.13;;;;;;;;;;5057567;28;21415;-74
2023/12/24 10:33:08;;;;;;;4.97;4.63;;;;;;;;;;5050506;28;20531;-73
2023/12/24 10:35:35;;;;;;;5.40;5.00;;;;;;;;;;5053632;28;20442;-71
2023/12/24 10:38:07;;;;;;;5.40;4.90;;;;;;;;;;5058199;28;20515;-71
2023/12/24 10:40:33;;;;;;;5.87;5.37;;;;;;;;;;5051462;28;20452;-72
2023/12/24 10:43:00;;;;;;;5.33;4.90;;;;;;;;;;5055089;28;20543;-71
2023/12/24 10:45:27;;;;;;;4.90;4.50;;;;;;;;;;5054309;28;20552;-69
2023/12/24 10:47:53;;;;;;;5.87;5.37;;;;;;;;;;5053141;28;20495;-69
2023/12/24 10:50:20;;;;;;;4.80;4.50;;;;;;;;;;5052999;28;20488;-69
2023/12/24 10:52:47;;;;;;;5.53;4.87;;;;;;;;;;5048541;28;20453;-68
2023/12/24 10:55:15;;;;;;;5.90;5.40;;;;;;;;;;5054194;28;20540;-69
2023/12/24 10:57:46;;;;;;;5.33;4.83;;;;;;;;;;5052398;28;20476;-69
2023/12/24 11:00:14;;;;;;;4.63;4.33;;;;;;;;;;5057432;28;20568;-69
2023/12/24 11:02:43;;;;;;;5.93;5.43;;;;;;;;;;5057623;28;20526;-68
2023/12/24 11:05:10;;;;;;;5.90;5.50;;;;;;;;;;5063865;28;20570;-68
2023/12/24 11:07:45;;;;;;;6.07;5.57;;;;;;;;;;5071223;28;20547;-68
2023/12/24 11:10:32;;;;;;;7.30;6.60;;;;;;;;;;5072644;28;20444;-68
2023/12/24 11:12:59;;;;;;;6.33;5.83;;;;;;;;;;5072698;28;20530;-69
2023/12/24 11:15:39;;;;;;;7.13;6.43;;;;;;;;;;5068760;28;20547;-69
2023/12/24 11:18:06;;;;;;;12.20;7.40;;;;;;;;;;5076245;28;20913;-69
2023/12/24 11:20:38;;;;;;;7.90;7.20;;;;;;;;;;5078297;28;20507;-68
2023/12/24 11:23:11;;;;;;;7.93;7.27;;;;;;;;;;5069861;28;20466;-68
2023/12/24 11:25:37;;;;;;;7.87;7.07;;;;;;;;;;5077426;28;20486;-65
2023/12/24 11:28:06;;;;;;;8.83;8.13;;;;;;;;;;5077393;28;20479;-67
2023/12/24 11:31:01;;;;;;;7.97;7.20;;;;;;;;;;5065072;28;20488;-65
2023/12/24 11:33:43;;;;;;;8.00;7.27;;;;;;;;;;5069274;28;20824;-78
2023/12/24 11:36:10;;;;;;;7.93;7.20;;;;;;;;;;5069641;28;20480;-75
2023/12/24 11:38:40;;;;;;;7.73;7.03;;;;;;;;;;5067948;28;20466;-77
2023/12/24 11:41:06;;;;;;;8.27;7.47;;;;;;;;;;5074866;28;20464;-77
2023/12/24 11:43:34;;;;;;;7.60;7.00;;;;;;;;;;5076662;28;20468;-77
2023/12/24 11:46:01;;;;;;;7.97;7.27;;;;;;;;;;5076253;28;20486;-78
2023/12/24 11:48:28;;;;;;;7.83;7.00;;;;;;;;;;5076944;28;20603;-75
2023/12/24 11:51:01;;;;;;;7.60;6.83;;;;;;;;;;5074414;28;20531;-77
2023/12/24 11:53:28;;;;;;;8.20;7.60;;;;;;;;;;5075233;28;20495;-73
2023/12/24 11:56:03;;;;;;;7.10;6.33;;;;;;;;;;5074394;28;21050;-75
2023/12/24 11:58:29;;;;;;;7.50;6.80;;;;;;;;;;5069631;28;20968;-76
2023/12/24 12:00:58;;;;;;;7.37;6.67;;;;;;;;;;5073141;28;20872;-77
2023/12/24 12:03:24;;;;;;;7.70;6.97;;;;;;;;;;5073639;28;20484;-78
2023/12/24 12:05:51;;;;;;;7.77;7.17;;;;;;;;;;5072996;28;20614;-78
2023/12/24 12:08:17;;;;;;;8.43;7.73;;;;;;;;;;5076635;28;20531;-76
2023/12/24 12:10:43;;;;;;;7.60;6.90;;;;;;;;;;5070525;28;20507;-75
2023/12/24 12:13:10;;;;;;;7.10;6.50;;;;;;;;;;5070475;28;20496;-74
2023/12/24 12:15:36;;;;;;;7.43;6.67;;;;;;;;;;5067814;28;20539;-76
2023/12/24 12:18:04;;;;;;;7.27;6.67;;;;;;;;;;5073263;28;20539;-78
2023/12/24 12:20:31;;;;;;;6.87;6.20;;;;;;;;;;5071262;28;20432;-73
2023/12/24 12:22:58;;;;;;;6.73;6.13;;;;;;;;;;5073554;28;20826;-76
2023/12/24 12:25:24;;;;;;;6.97;6.37;;;;;;;;;;5076205;28;20482;-78
2023/12/24 12:27:51;;;;;;;6.50;5.90;;;;;;;;;;5057389;28;20513;-78
2023/12/24 12:30:19;;;;;;;5.90;5.40;;;;;;;;;;5065706;28;20580;-75
2023/12/24 12:32:46;;;;;;;6.13;5.53;;;;;;;;;;5060545;28;20472;-81
2023/12/24 12:35:14;;;;;;;5.70;5.30;;;;;;;;;;5064047;28;20510;-86
2023/12/24 12:37:41;;;;;;;6.97;6.37;;;;;;;;;;5069268;28;20523;-81
2023/12/24 12:40:08;;;;;;;6.87;6.27;;;;;;;;;;5064788;28;20517;-81
2023/12/24 12:42:34;;;;;;;7.27;6.67;;;;;;;;;;5071069;28;20455;-81
2023/12/24 12:45:01;;;;;;;7.93;7.13;;;;;;;;;;5069401;28;20452;-80
2023/12/24 12:47:27;;;;;;;7.80;7.00;;;;;;;;;;5072466;28;20484;-78
2023/12/24 12:49:54;;;;;;;9.90;8.00;;;;;;;;;;5070844;28;20555;-80
2023/12/24 12:52:22;;;;;;;9.50;7.77;;;;;;;;;;5069743;28;20464;-81
2023/12/24 12:54:48;;;;;;;9.37;8.37;;;;;;;;;;5072914;28;20491;-78
2023/12/24 12:57:27;;;;;;;7.93;7.17;;;;;;;;;;5071523;28;20476;-79
2023/12/24 13:00:00;;;;;;;9.33;8.43;;;;;;;;;;5062917;28;20519;-79
2023/12/24 13:02:26;;;;;;;8.57;7.60;;;;;;;;;;5064251;28;20480;-78
2023/12/24 13:04:52;;;;;;;9.17;7.80;;;;;;;;;;5056036;28;20563;-78
2023/12/24 13:07:19;;;;;;;9.43;8.60;;;;;;;;;;5047781;28;20535;-73
2023/12/24 13:09:49;;;;;;;9.40;8.50;;;;;;;;;;5043932;28;20492;-73
2023/12/24 13:12:18;;;;;;;10.30;9.00;;;;;;;;;;5050623;28;20448;-68
2023/12/24 13:14:49;;;;;;;10.17;9.17;;;;;;;;;;5051673;28;20464;-68
2023/12/24 13:17:22;;;;;;;8.97;8.17;;;;;;;;;;5046628;28;20539;-68
2023/12/24 13:19:49;;;;;;;14.20;9.40;;;;;;;;;;5045778;28;20461;-68
2023/12/24 13:22:16;;;;;;;11.40;8.93;;;;;;;;;;5046904;28;20476;-67
2023/12/24 13:24:43;;;;;;;10.30;9.20;;;;;;;;;;5049256;28;20449;-67
2023/12/24 13:27:11;;;;;;;9.63;8.63;;;;;;;;;;5046480;28;20486;-67
2023/12/24 13:29:37;;;;;;;10.23;9.13;;;;;;;;;;5044725;28;20477;-67
2023/12/24 13:32:04;;;;;;;9.33;8.40;;;;;;;;;;5042460;28;20746;-67
2023/12/24 13:34:30;;;;;;;13.13;10.80;;;;;;;;;;5046010;28;20433;-67
2023/12/24 13:36:57;;;;;;;40.47;26.43;;;;;;;;;;5047032;28;20456;-68
2023/12/24 13:39:23;;;;;;;12.50;11.20;;;;;;;;;;5044175;28;20544;-68
2023/12/24 13:41:50;;;;;;;7.97;7.27;;;;;;;;;;5046272;28;20528;-67
2023/12/24 13:44:18;;;;;;;7.83;6.47;;;;;;;;;;5045598;28;20540;-68
2023/12/24 13:46:44;;;;;;;6.00;5.50;;;;;;;;;;5044906;28;20480;-68
2023/12/24 13:49:11;;;;;;;7.90;6.50;;;;;;;;;;5043595;28;20461;-68
2023/12/24 13:51:37;;;;;;;6.43;5.63;;;;;;;;;;5041428;28;20484;-68
2023/12/24 13:54:04;;;;;;;6.47;5.87;;;;;;;;;;5050434;28;20476;-67
2023/12/24 13:56:32;;;;;;;6.30;5.73;;;;;;;;;;5046406;28;20468;-68
2023/12/24 13:58:58;;;;;;;6.83;6.17;;;;;;;;;;5049372;28;20456;-67
2023/12/24 14:01:27;;;;;;;7.90;6.33;;;;;;;;;;5045830;28;20484;-68
2023/12/24 14:03:53;;;;;;;6.80;6.13;;;;;;;;;;5045690;28;20482;-67
2023/12/24 14:06:20;;;;;;;7.13;5.43;;;;;;;;;;5058744;28;20529;-69
2023/12/24 14:08:46;;;;;;;7.33;6.63;;;;;;;;;;5063326;28;20535;-67
2023/12/24 14:11:12;;;;;;;7.50;6.73;;;;;;;;;;5066264;28;20520;-68
2023/12/24 14:13:40;;;;;;;8.13;7.17;;;;;;;;;;5069774;28;20507;-68
2023/12/24 14:16:07;;;;;;;8.60;7.70;;;;;;;;;;5064083;28;20468;-68
2023/12/24 14:18:37;;;;;;;8.13;7.30;;;;;;;;;;5067332;28;20460;-67
2023/12/24 14:21:04;;;;;;;8.43;7.53;;;;;;;;;;5068515;28;20483;-69
2023/12/24 14:23:30;;;;;;;8.87;7.13;;;;;;;;;;5065624;28;21091;-68
2023/12/24 14:25:57;;;;;;;8.00;7.20;;;;;;;;;;5069762;28;20490;-69
2023/12/24 14:28:23;;;;;;;8.03;7.07;;;;;;;;;;5072700;28;20730;-70
2023/12/24 14:30:50;;;;;;;9.37;8.37;;;;;;;;;;5074658;28;20476;-68
2023/12/24 14:33:16;;;;;;;9.23;8.30;;;;;;;;;;5074995;28;20491;-68
2023/12/24 14:35:44;;;;;;;9.03;8.13;;;;;;;;;;5076992;28;20523;-69